createdAt,value
2023-04-03T00:04:29.551Z,1.10
2023-04-03T00:09:37.492Z,1.20
2023-04-03T00:14:44.985Z,1.10
2023-04-03T00:19:52.832Z,1.10
2023-04-03T00:24:59.923Z,0.90
2023-04-03T00:30:08.998Z,0.70
2023-04-03T00:35:17.242Z,0.70
2023-04-03T00:40:26.801Z,0.70
2023-04-03T00:45:41.437Z,0.60
2023-04-03T00:50:49.080Z,0.80
2023-04-03T00:55:57.711Z,0.70
2023-04-03T01:01:07.951Z,0.60
2023-04-03T01:06:20.528Z,0.70
2023-04-03T01:11:28.498Z,0.30
2023-04-03T01:16:36.242Z,0.50
2023-04-03T01:22:02.872Z,0.40
2023-04-03T01:27:14.699Z,0.60
2023-04-03T01:32:22.311Z,0.40
2023-04-03T01:37:29.603Z,0.70
2023-04-03T01:42:39.383Z,0.70
2023-04-03T01:47:47.101Z,0.60
2023-04-03T01:52:54.318Z,0.40
2023-04-03T01:58:01.764Z,0.40
2023-04-03T02:03:08.523Z,0.40
2023-04-03T02:08:16.501Z,0.60
2023-04-03T02:13:23.845Z,0.50
2023-04-03T02:18:30.802Z,0.30
2023-04-03T02:23:38.252Z,0.30
2023-04-03T02:28:47.531Z,0.30
2023-04-03T02:33:54.464Z,0.40
2023-04-03T02:39:01.896Z,0.40
2023-04-03T02:44:12.257Z,0.30
2023-04-03T02:49:20.437Z,0.20
2023-04-03T02:54:29.511Z,0.20
2023-04-03T02:59:36.287Z,0.00
2023-04-03T03:04:44.694Z,-0.10
2023-04-03T03:09:52.459Z,-0.20
2023-04-03T03:15:00.469Z,-0.20
2023-04-03T03:20:10.004Z,-0.30
2023-04-03T03:25:17.509Z,-0.50
2023-04-03T03:30:25.566Z,-0.60
2023-04-03T03:35:32.700Z,-0.30
2023-04-03T03:40:41.123Z,-0.60
2023-04-03T03:45:54.169Z,-0.60
2023-04-03T03:51:01.932Z,-0.30
2023-04-03T03:56:09.139Z,-0.40
2023-04-03T04:01:16.439Z,-0.30
2023-04-03T04:06:23.855Z,-0.40
2023-04-03T04:11:31.813Z,-0.70
2023-04-03T04:16:39.116Z,-0.80
2023-04-03T04:21:48.009Z,-0.90
2023-04-03T04:26:55.569Z,-0.80
2023-04-03T04:32:03.155Z,-0.60
2023-04-03T04:37:10.682Z,-1.00
2023-04-03T04:42:18.216Z,-0.50
2023-04-03T04:47:26.031Z,-0.40
2023-04-03T04:52:33.417Z,-0.80
2023-04-03T04:57:40.529Z,-0.50
2023-04-03T05:02:48.438Z,-0.40
2023-04-03T05:07:55.578Z,-0.30
2023-04-03T05:13:02.729Z,-0.30
2023-04-03T05:18:10.907Z,-0.20
2023-04-03T05:23:18.018Z,-0.50
2023-04-03T05:28:28.467Z,-0.50
2023-04-03T05:33:37.904Z,-0.80
2023-04-03T05:38:44.939Z,-0.70
2023-04-03T05:43:52.431Z,-0.80
2023-04-03T05:48:59.365Z,-1.00
2023-04-03T05:54:30.715Z,-0.70
2023-04-03T05:59:38.936Z,-0.70
2023-04-03T06:04:46.043Z,-0.60
2023-04-03T06:09:54.181Z,-0.60
2023-04-03T06:15:04.088Z,-0.70
2023-04-03T06:20:11.598Z,-1.00
2023-04-03T06:25:20.222Z,-1.10
2023-04-03T06:30:28.036Z,-1.20
2023-04-03T06:35:36.613Z,-0.20
2023-04-03T06:40:43.508Z,0.20
2023-04-03T06:45:51.627Z,0.40
2023-04-03T06:50:58.530Z,0.50
2023-04-03T06:56:05.881Z,0.40
2023-04-03T07:01:16.327Z,0.40
2023-04-03T07:06:24.087Z,-0.40
2023-04-03T07:11:31.560Z,-0.60
2023-04-03T07:16:41.103Z,0.00
2023-04-03T07:21:50.162Z,0.10
2023-04-03T07:26:57.523Z,-0.40
2023-04-03T07:32:05.308Z,0.40
2023-04-03T07:37:13.197Z,0.30
2023-04-03T07:42:20.256Z,1.10
2023-04-03T07:47:27.909Z,1.70
2023-04-03T07:52:34.881Z,1.90
2023-04-03T07:57:43.775Z,1.60
2023-04-03T08:02:53.650Z,0.50
2023-04-03T08:08:00.722Z,1.70
2023-04-03T08:13:08.810Z,2.10
2023-04-03T08:18:17.741Z,2.20
2023-04-03T08:23:25.023Z,2.40
2023-04-03T08:28:31.042Z,1.60
2023-04-03T08:33:39.096Z,1.50
2023-04-03T08:38:46.383Z,2.10
2023-04-03T08:44:01.140Z,2.30
2023-04-03T08:49:25.350Z,1.90
2023-04-03T08:54:40.095Z,2.10
2023-04-03T08:59:47.440Z,0.80
2023-04-03T09:04:54.788Z,1.70
2023-04-03T09:10:04.826Z,3.00
2023-04-03T09:15:37.952Z,2.10
2023-04-03T09:21:00.948Z,1.90
2023-04-03T09:26:12.932Z,1.60
2023-04-03T09:31:33.612Z,3.40
2023-04-03T09:36:50.753Z,3.20
2023-04-03T09:42:25.674Z,2.90
2023-04-03T09:47:38.054Z,2.60
2023-04-03T09:52:48.699Z,2.50
2023-04-03T09:57:59.054Z,2.70
2023-04-03T10:03:07.424Z,2.40
2023-04-03T10:08:22.233Z,2.90
2023-04-03T10:13:30.968Z,3.20
2023-04-03T10:18:56.092Z,2.90
2023-04-03T10:24:37.886Z,3.40
2023-04-03T10:30:20.962Z,3.60
2023-04-03T10:35:51.057Z,2.40
2023-04-03T10:41:25.046Z,2.90
2023-04-03T10:46:41.859Z,2.50
2023-04-03T10:51:55.789Z,3.60
2023-04-03T10:57:13.959Z,3.30
2023-04-03T11:02:34.327Z,2.30
2023-04-03T11:07:45.762Z,3.10
2023-04-03T11:12:57.154Z,2.50
2023-04-03T11:18:14.267Z,2.50
2023-04-03T11:23:42.274Z,2.20
2023-04-03T11:28:41.970Z,1.90
2023-04-03T11:34:26.967Z,3.40
2023-04-03T11:39:39.784Z,2.60
2023-04-03T11:44:47.748Z,2.60
2023-04-03T11:50:06.952Z,2.10
2023-04-03T11:55:38.621Z,2.00
2023-04-03T12:00:58.307Z,2.10
2023-04-03T12:06:15.345Z,2.60
2023-04-03T12:11:31.800Z,2.70
2023-04-03T12:16:45.356Z,2.90
2023-04-03T12:22:04.692Z,3.40
2023-04-03T12:27:35.978Z,3.40
2023-04-03T12:33:05.853Z,2.60
2023-04-03T12:38:50.239Z,2.50
2023-04-03T12:44:35.983Z,2.30
2023-04-03T12:49:46.327Z,2.80
2023-04-03T12:54:54.408Z,2.60
2023-04-03T13:00:02.590Z,2.70
2023-04-03T13:05:12.428Z,2.70
2023-04-03T13:10:21.495Z,2.80
2023-04-03T13:15:33.861Z,2.50
2023-04-03T13:20:41.810Z,2.50
2023-04-03T13:25:49.516Z,2.80
2023-04-03T13:31:13.514Z,2.80
2023-04-03T13:36:24.088Z,2.50
2023-04-03T13:41:41.234Z,2.50
2023-04-03T13:46:49.763Z,2.70
2023-04-03T13:52:06.656Z,3.60
2023-04-03T13:57:19.024Z,3.60
2023-04-03T14:02:35.282Z,3.10
2023-04-03T14:07:43.137Z,3.10
2023-04-03T14:12:51.069Z,3.00
2023-04-03T14:17:59.224Z,2.70
2023-04-03T14:23:07.919Z,2.60
2023-04-03T14:28:22.000Z,2.80
2023-04-03T14:33:32.373Z,2.90
2023-04-03T14:38:39.627Z,2.60
2023-04-03T14:43:48.344Z,2.60
2023-04-03T14:48:56.348Z,2.70
2023-04-03T14:54:03.090Z,2.90
2023-04-03T14:59:15.584Z,3.40
2023-04-03T15:04:24.377Z,3.20
2023-04-03T15:09:33.214Z,2.70
2023-04-03T15:14:52.471Z,2.80
2023-04-03T15:19:49.535Z,2.40
2023-04-03T15:24:57.050Z,2.50
2023-04-03T15:30:05.449Z,2.30
2023-04-03T15:35:13.276Z,2.60
2023-04-03T15:40:20.526Z,2.30
2023-04-03T15:45:29.025Z,2.20
2023-04-03T15:50:37.893Z,2.30
2023-04-03T15:55:46.601Z,2.10
2023-04-03T16:00:53.605Z,2.20
2023-04-03T16:05:59.695Z,2.30
2023-04-03T16:11:06.929Z,2.10
2023-04-03T16:16:16.673Z,2.30
2023-04-03T16:21:23.782Z,2.00
2023-04-03T16:26:31.103Z,1.90
2023-04-03T16:31:39.408Z,2.00
2023-04-03T16:36:49.041Z,1.90
2023-04-03T16:41:56.402Z,2.00
2023-04-03T16:47:04.051Z,1.90
2023-04-03T16:52:12.891Z,1.80
2023-04-03T16:57:19.642Z,1.90
2023-04-03T17:02:28.248Z,1.80
2023-04-03T17:07:36.766Z,1.70
2023-04-03T17:12:44.066Z,1.90
2023-04-03T17:17:51.741Z,1.70
2023-04-03T17:22:58.712Z,1.70
2023-04-03T17:28:08.167Z,1.70
2023-04-03T17:33:15.309Z,1.70
2023-04-03T17:38:22.671Z,1.80
2023-04-03T17:43:31.760Z,1.70
2023-04-03T17:48:41.773Z,1.60
2023-04-03T17:53:50.220Z,1.70
2023-04-03T17:58:59.308Z,1.60
2023-04-03T18:04:07.824Z,1.70
2023-04-03T18:09:19.107Z,1.80
2023-04-03T18:14:28.845Z,1.90
2023-04-03T18:19:37.237Z,1.90
2023-04-03T18:24:45.337Z,2.00
2023-04-03T18:29:59.944Z,1.90
2023-04-03T18:35:11.996Z,1.80
2023-04-03T18:40:23.411Z,1.80
2023-04-03T18:45:32.780Z,1.90
2023-04-03T18:50:43.134Z,1.80
2023-04-03T18:55:50.973Z,1.80
2023-04-03T19:00:59.632Z,1.80
2023-04-03T19:06:09.163Z,1.80
2023-04-03T19:11:17.009Z,1.80
2023-04-03T19:16:24.650Z,1.70
2023-04-03T19:21:35.324Z,1.80
2023-04-03T19:26:44.379Z,1.80
2023-04-03T19:31:52.769Z,1.70
2023-04-03T19:37:00.957Z,1.50
2023-04-03T19:42:10.854Z,1.10
2023-04-03T19:47:22.334Z,1.30
2023-04-03T19:52:30.301Z,1.10
2023-04-03T19:57:38.140Z,1.30
2023-04-03T20:02:46.741Z,1.20
2023-04-03T20:07:53.619Z,1.30
2023-04-03T20:13:01.068Z,1.40
2023-04-03T20:18:09.518Z,1.60
2023-04-03T20:23:18.253Z,1.30
2023-04-03T20:28:26.929Z,1.60
2023-04-03T20:33:34.130Z,1.60
2023-04-03T20:38:42.062Z,1.50
2023-04-03T20:43:49.433Z,1.60
2023-04-03T20:48:58.081Z,1.40
2023-04-03T20:54:04.841Z,1.30
2023-04-03T20:59:13.993Z,1.20
2023-04-03T21:04:30.529Z,1.00
2023-04-03T21:10:36.312Z,1.10
2023-04-03T21:15:49.847Z,1.00
2023-04-03T21:20:57.651Z,0.80
2023-04-03T21:26:05.197Z,0.90
2023-04-03T21:31:15.255Z,1.20
2023-04-03T21:36:23.810Z,1.00
2023-04-03T21:41:31.798Z,1.10
2023-04-03T21:46:39.919Z,0.80
2023-04-03T21:51:47.282Z,0.90
2023-04-03T21:56:54.508Z,0.80
2023-04-03T22:02:03.364Z,0.80
2023-04-03T22:07:10.859Z,0.90
2023-04-03T22:12:19.350Z,0.90
2023-04-03T22:17:26.761Z,1.10
2023-04-03T22:22:34.138Z,1.00
2023-04-03T22:27:42.281Z,1.10
2023-04-03T22:32:51.607Z,1.20
2023-04-03T22:37:59.361Z,1.20
2023-04-03T22:43:06.353Z,1.20
2023-04-03T22:48:13.408Z,1.20
2023-04-03T22:53:20.819Z,1.30
2023-04-03T22:58:28.990Z,1.20
2023-04-03T23:03:37.934Z,1.20
2023-04-03T23:08:46.056Z,1.00
2023-04-03T23:13:53.256Z,0.70
2023-04-03T23:18:59.405Z,0.50
2023-04-03T23:24:06.737Z,0.70
2023-04-03T23:29:14.013Z,0.60
2023-04-03T23:34:20.720Z,0.70
2023-04-03T23:39:28.249Z,0.60
2023-04-03T23:44:38.013Z,0.50
2023-04-03T23:49:45.609Z,0.40
2023-04-03T23:54:53.096Z,0.20
